Latest Weather Observations for Sydney - Observatory Hill

IDN60801

Issued at 4:05 pm EST Saturday 2 August 2014 (issued every 30 minutes, with the page automatically refreshed every 10 minutes)

About weather observations | Map of weather stations | Latest weather observations for NSW | Other Formats
Station Details ID: 066062 Name: SYDNEY (OBSERVATORY HILL) Lat: -33.86 Lon: 151.21 Height: 39.0 m
Data from the previous 72 hours. | See also: Recent months at Sydney - Observatory Hill

* Apparent temperature (App Temp) for Sydney - Observatory Hill is calculated using temperature observations collected at Sydney - Observatory Hill and wind observations collected at Fort Denison, as wind observations are not currently provided for Sydney - Observatory Hill.

Date/Time
EST
Temp
°C
App
Temp
°C
Dew
Point
Rel
Hum
%
Delta-T
°C
Wind Press
QNH
hPa
Press
MSL
hPa
Rain
since 9 am
mm
Dir
 
Spd
km/h
Gust
km/h
Spd
kts
Gust
kts
02/04:00pm 13.6 6.1 1.3 43 5.2 - 30 - 16 - 1027.3 1027.3 0.0
02/03:30pm 14.7 7.9 0.9 39 5.9 - 26 - 14 - 1027.1 - 0.0
02/03:00pm 15.0 7.7 0.1 36 6.3 - 28 - 15 - 1026.8 1026.8 0.0
02/02:30pm 15.8 8.5 0.0 34 6.7 - 28 - 15 - 1026.5 - 0.0
02/02:00pm 15.5 8.9 -0.7 33 6.7 - 24 - 13 - 1026.3 1026.3 0.0
02/01:30pm 15.4 9.1 -1.2 32 6.9 - 22 - 12 - 1025.9 - 0.0
02/01:00pm 15.7 9.7 -1.4 31 7.0 - 20 - 11 - 1025.7 1025.7 0.0
02/12:30pm 15.0 8.9 -2.0 31 6.9 - 20 - 11 - 1025.7 - 0.0
02/12:00pm 13.9 7.2 -1.3 35 6.1 - 24 - 13 - 1025.7 1025.7 0.0
02/11:30am 13.3 7.3 -1.8 35 6.0 - 20 - 11 - 1025.8 - 0.0
02/11:00am 12.3 6.2 -2.3 36 5.7 - 20 - 11 - 1025.9 1025.9 0.0
02/10:30am 12.0 5.7 -1.2 40 5.3 - 22 - 12 - 1025.7 - 0.0
02/10:00am 11.1 4.3 -2.0 40 5.1 - 24 - 13 - 1025.5 1025.5 0.0
02/09:30am 10.5 3.4 -1.2 44 4.6 - 26 - 14 - 1025.1 - 0.0
02/09:00am 9.6 2.1 -1.7 45 4.3 - 28 - 15 - 1024.6 1024.6 0.0
02/08:30am 9.2 2.4 -1.8 46 4.2 - 24 - 13 - 1024.1 - 0.0
02/08:00am 8.4 2.5 -0.6 53 3.5 - 20 - 11 - 1023.5 1023.5 0.0
02/07:30am 8.0 2.1 -1.0 53 3.5 - 20 - 11 - 1022.8 - 0.0
02/07:00am 7.3 1.0 -0.9 56 3.1 - 22 - 12 - 1022.1 1022.1 0.0
02/06:30am 7.4 0.7 -1.0 55 3.2 - 24 - 13 - 1021.6 - 0.0
02/06:00am 7.6 1.3 -1.1 54 3.3 - 22 - 12 - 1021.0 1021.0 0.0
02/05:30am 7.9 1.6 -1.1 53 3.4 - 22 - 12 - 1020.4 - 0.0
02/05:00am 8.2 1.1 -1.1 52 3.6 - 26 - 14 - 1019.6 1019.7 0.0
02/04:30am 8.4 1.7 -1.4 50 3.7 - 24 - 13 - 1019.3 - 0.0
02/04:00am 8.5 2.5 -1.3 50 3.7 - 20 - 11 - 1019.0 1019.0 0.0
02/03:30am 8.7 2.7 -1.4 49 3.9 - 20 - 11 - 1018.4 - 0.0
02/03:00am 9.1 3.3 -1.6 47 4.1 - 19 - 10 - 1018.1 1018.1 0.0
02/02:30am 9.3 1.9 -0.8 49 4.0 - 28 - 15 - 1017.4 - 0.0
02/02:00am 9.1 3.2 -1.0 49 3.9 - 20 - 11 - 1017.5 1017.5 0.0
02/01:30am 9.2 1.8 -0.4 51 3.8 - 28 - 15 - 1016.9 - 0.0
02/01:00am 9.1 1.8 0.3 54 3.5 - 28 - 15 - 1016.7 1016.7 0.0
02/12:30am 9.1 2.3 1.0 57 3.3 - 26 - 14 - 1016.8 - 0.0
02/12:00am 9.1 3.6 0.8 56 3.4 - 19 - 10 - 1016.7 1016.7 0.0
 
Date/Time
EST
Temp
°C
App
Temp
°C
Dew
Point
Rel
Hum
%
Delta-T
°C
Wind Press
QNH
hPa
Press
MSL
hPa
Rain
since 9 am
mm
Dir
 
Spd
km/h
Gust
km/h
Spd
kts
Gust
kts
01/11:30pm 9.3 4.2 1.0 56 3.4 - 17 - 9 - 1016.4 - 0.0
01/11:00pm 9.4 4.0 1.3 57 3.3 - 19 - 10 - 1016.0 1016.0 0.0
01/10:30pm 9.5 3.5 1.2 56 3.4 - 22 - 12 - 1015.8 - 0.0
01/10:00pm 9.8 3.1 1.2 55 3.5 - 26 - 14 - 1016.1 1016.1 0.0
01/09:30pm 10.1 3.7 0.7 52 3.8 - 24 - 13 - 1015.4 - 0.0
01/09:00pm 10.0 3.5 0.6 52 3.8 - 24 - 13 - 1015.2 1015.2 0.0
01/08:30pm 9.6 3.3 1.3 56 3.4 - 24 - 13 - 1014.9 - 0.0
01/08:00pm 10.3 1.5 1.4 54 3.7 - 37 - 20 - 1014.6 1014.6 0.0
01/07:30pm 11.5 1.4 0.3 46 4.6 - 43 - 23 - 1013.8 - 0.0
01/07:00pm 12.0 1.5 -0.8 41 5.2 - 44 - 24 - 1013.4 1013.4 0.0
01/06:30pm 13.1 3.7 -2.8 33 6.2 - 37 - 20 - 1013.0 - 0.0
01/06:00pm 13.6 6.6 -3.2 31 6.5 - 24 - 13 - 1012.4 1012.4 0.0
01/05:30pm 14.0 6.2 -4.2 28 6.9 - 28 - 15 - 1011.5 - 0.0
01/05:00pm 14.5 5.7 -4.2 27 7.2 - 33 - 18 - 1010.6 1010.6 0.0
01/04:30pm 15.0 6.1 -4.8 25 7.5 - 33 - 18 - 1010.1 - 0.0
01/04:00pm 15.3 7.0 -4.6 25 7.7 - 30 - 16 - 1009.6 1009.6 0.0
01/03:30pm 16.2 7.9 -4.9 23 8.1 - 30 - 16 - 1009.2 - 0.0
01/03:00pm 16.7 8.8 -4.5 23 8.3 - 28 - 15 - 1008.7 1008.7 0.0
01/02:30pm 16.3 8.0 -5.4 22 8.3 - 30 - 16 - 1008.5 - 0.0
01/02:00pm 17.6 8.7 -2.1 26 8.2 - 35 - 19 - 1008.1 1008.1 0.0
01/01:30pm 18.0 11.3 -1.3 27 8.2 - 24 - 13 - 1007.9 - 0.0
01/01:00pm 17.3 10.6 -0.9 29 7.7 - 24 - 13 - 1007.5 1007.5 0.0
01/12:30pm 16.5 8.7 -0.7 31 7.3 - 30 - 16 - 1007.4 - 0.0
01/12:00pm 17.4 8.8 0.1 31 7.5 - 35 - 19 - 1007.5 1007.5 0.0
01/11:30am 17.6 10.2 1.6 34 7.2 - 30 - 16 - 1007.6 - 0.0
01/11:00am 17.3 10.6 1.7 35 7.0 - 26 - 14 - 1007.6 1007.6 0.0
01/10:30am 17.1 11.9 3.4 40 6.3 - 20 - 11 - 1007.5 - 0.0
01/10:00am 16.9 11.3 3.6 41 6.2 - 22 - 12 - 1007.6 1007.6 0.0
01/09:30am 16.9 11.7 3.6 41 6.2 - 20 - 11 - 1007.4 - 0.0
01/09:00am 16.8 11.2 3.5 41 6.2 - 22 - 12 - 1007.2 1007.2 0.0
01/08:30am 16.6 11.1 1.9 37 6.6 - 20 - 11 - 1007.3 - 0.0
01/08:00am 16.8 10.9 -0.9 30 7.5 - 20 - 11 - 1007.0 1007.0 0.0
01/07:30am 17.0 11.7 -0.7 30 7.5 - 17 - 9 - 1006.4 - 0.0
01/07:00am 16.6 13.6 -2.0 28 7.7 - 4 - 2 - 1006.0 1006.0 0.0
01/06:30am 16.5 12.5 -2.0 28 7.6 - 9 - 5 - 1005.4 - 0.0
01/06:00am 16.3 12.9 -2.2 28 7.6 - 6 - 3 - 1004.8 1004.8 0.0
01/05:30am 17.0 12.2 -2.6 26 8.0 - 13 - 7 - 1004.4 - 0.0
01/05:00am 17.2 11.6 -3.0 25 8.2 - 17 - 9 - 1004.3 1004.3 0.0
01/04:30am 17.6 11.6 -3.2 24 8.4 - 19 - 10 - 1003.8 - 0.0
01/04:00am 17.6 11.7 -2.6 25 8.3 - 19 - 10 - 1004.1 1004.1 0.0
01/03:30am 17.6 12.0 -3.2 24 8.4 - 17 - 9 - 1004.4 - 0.0
01/03:00am 17.2 12.4 -2.4 26 8.1 - 13 - 7 - 1004.7 1004.7 0.0
01/02:30am 17.0 10.9 -2.1 27 7.9 - 20 - 11 - 1005.1 - 0.0
01/02:00am 18.0 12.0 -2.8 24 8.6 - 19 - 10 - 1005.4 1005.4 0.0
01/01:30am 18.0 11.9 -2.3 25 8.4 - 20 - 11 - 1005.7 - 0.0
01/01:00am 18.2 13.1 -2.1 25 8.5 - 15 - 8 - 1006.0 1006.0 0.0
01/12:30am 18.0 12.9 -1.8 26 8.3 - 15 - 8 - 1006.1 - 0.0
01/12:00am 17.8 12.8 -1.4 27 8.1 - 15 - 8 - 1006.3 1006.3 0.0
 
Date/Time
EST
Temp
°C
App
Temp
°C
Dew
Point
Rel
Hum
%
Delta-T
°C
Wind Press
QNH
hPa
Press
MSL
hPa
Rain
since 9 am
mm
Dir
 
Spd
km/h
Gust
km/h
Spd
kts
Gust
kts
31/11:30pm 17.9 14.4 -1.3 27 8.1 - 7 - 4 - 1006.5 - 0.0
31/11:00pm 18.4 13.8 -1.4 26 8.4 - 13 - 7 - 1006.5 1006.5 0.0
31/10:30pm 18.5 12.2 -0.8 27 8.3 - 22 - 12 - 1006.5 - 0.0
31/10:00pm 18.3 12.0 -1.0 27 8.3 - 22 - 12 - 1006.8 1006.8 0.0
31/09:30pm 19.0 13.6 -1.4 25 8.7 - 17 - 9 - 1007.0 - 0.0
31/09:00pm 19.1 12.4 -1.4 25 8.8 - 24 - 13 - 1007.1 1007.1 0.0
31/08:30pm 19.7 12.6 -1.4 24 9.0 - 26 - 14 - 1007.2 - 0.0
31/08:00pm 19.9 12.8 -1.2 24 9.1 - 26 - 14 - 1007.0 1007.0 0.0
31/07:30pm 20.3 12.8 -1.5 23 9.4 - 28 - 15 - 1007.1 - 0.0
31/07:00pm 20.6 13.4 -1.8 22 9.6 - 26 - 14 - 1007.2 1007.2 0.0
31/06:30pm 21.0 13.9 -1.5 22 9.7 - 26 - 14 - 1006.7 - 0.0
31/06:00pm 21.1 15.3 -1.4 22 9.8 - 19 - 10 - 1006.9 1006.9 0.0
31/05:30pm 21.6 14.2 -1.0 22 9.9 - 28 - 15 - 1006.9 - 0.0
31/05:00pm 22.3 15.7 -0.4 22 10.2 - 24 - 13 - 1007.0 1007.0 0.0
31/04:30pm 22.9 13.3 -1.2 20 10.7 - 39 - 21 - 1007.1 - 0.0
31/04:00pm 23.3 15.0 -0.2 21 10.7 - 33 - 18 - 1007.2 1007.2 0.0
31/03:30pm 24.3 15.4 0.6 21 11.0 - 37 - 20 - 1007.2 - 0.0
31/03:00pm 24.5 16.0 0.8 21 11.1 - 35 - 19 - 1007.3 1007.3 0.0
31/02:30pm 24.7 15.6 1.6 22 10.9 - 39 - 21 - 1007.7 - 0.0
31/02:00pm 24.4 15.3 1.9 23 10.7 - 39 - 21 - 1008.2 1008.2 0.0
31/01:30pm 24.4 15.3 1.9 23 10.7 - 39 - 21 - 1008.7 - 0.0
31/01:00pm 24.3 15.7 2.5 24 10.5 - 37 - 20 - 1009.2 1009.2 0.0
31/12:30pm 23.6 17.1 2.4 25 10.1 - 26 - 14 - 1010.0 - 0.0
31/12:00pm 22.1 16.2 3.7 30 8.9 - 24 - 13 - 1010.9 1010.9 0.0
31/11:30am 21.2 13.7 3.4 31 8.5 - 32 - 17 - 1012.0 - 0.0
31/11:00am 20.4 13.6 3.2 32 8.1 - 28 - 15 - 1012.7 1012.7 0.0
31/10:30am 19.8 13.1 3.5 34 7.7 - 28 - 15 - 1013.4 - 0.0
31/10:00am 19.2 13.2 3.4 35 7.4 - 24 - 13 - 1013.7 1013.7 0.0
31/09:30am 18.3 12.1 4.1 39 6.7 - 26 - 14 - 1014.0 - 0.0
31/09:00am 17.7 11.8 3.9 40 6.5 - 24 - 13 - 1014.2 1014.2 0.0
31/08:30am 17.1 11.2 3.8 41 6.2 - 24 - 13 - 1014.3 - 0.0
31/08:00am 16.4 10.9 4.1 44 5.7 - 22 - 12 - 1014.4 1014.4 0.0
31/07:30am 16.1 12.5 5.1 48 5.2 - 13 - 7 - 1014.5 - 0.0
31/07:00am 14.7 11.1 5.0 52 4.6 - 13 - 7 - 1014.5 1014.5 0.0
31/06:30am 14.5 12.3 5.3 54 4.3 - 6 - 3 - 1014.5 - 0.0
31/06:00am 14.4 12.0 5.2 54 4.3 - 7 - 4 - 1014.4 1014.4 0.0
31/05:30am 14.1 11.8 4.9 54 4.3 - 6 - 3 - 1014.1 - 0.0
31/05:00am 14.6 12.3 5.7 55 4.2 - 7 - 4 - 1014.1 1014.1 0.0
31/04:30am 15.1 11.6 5.6 53 4.5 - 13 - 7 - 1014.3 - 0.0
31/04:00am 14.9 9.7 5.7 54 4.4 - 22 - 12 - 1014.4 1014.4 0.0
31/03:30am 15.3 10.7 6.3 55 4.4 - 20 - 11 - 1014.5 - 0.0
31/03:00am 15.5 10.4 6.2 54 4.5 - 22 - 12 - 1014.7 1014.7 0.0
31/02:30am 15.6 10.3 6.9 56 4.3 - 24 - 13 - 1014.9 - 0.0
31/02:00am 15.4 10.1 6.9 57 4.2 - 24 - 13 - 1015.3 1015.4 0.0
31/01:30am 15.8 11.3 7.0 56 4.3 - 20 - 11 - 1015.7 - 0.0
31/01:00am 15.9 11.4 7.1 56 4.3 - 20 - 11 - 1015.9 1016.0 0.0
31/12:30am 16.1 11.6 7.1 55 4.5 - 20 - 11 - 1016.2 - 0.0
31/12:00am 16.2 11.0 7.2 55 4.5 - 24 - 13 - 1016.6 1016.7 0.0
 
Date/Time
EST
Temp
°C
App
Temp
°C
Dew
Point
Rel
Hum
%
Delta-T
°C
Wind Press
QNH
hPa
Press
MSL
hPa
Rain
since 9 am
mm
Dir
 
Spd
km/h
Gust
km/h
Spd
kts
Gust
kts
30/11:30pm 15.9 11.0 6.9 55 4.4 - 22 - 12 - 1016.9 - 0.0
30/11:00pm 15.9 11.0 7.1 56 4.3 - 22 - 12 - 1017.1 1017.2 0.0
30/10:30pm 15.9 12.0 7.1 56 4.4 - 17 - 9 - 1017.2 - 0.0
30/10:00pm 16.0 12.5 7.0 55 4.4 - 15 - 8 - 1017.3 1017.4 0.0
30/09:30pm 16.1 13.3 6.8 54 4.6 - 11 - 6 - 1017.3 - 0.0
30/09:00pm 15.8 13.9 6.5 54 4.5 - 6 - 3 - 1017.5 1017.6 0.0
30/08:30pm 16.1 14.0 6.5 53 4.7 - 7 - 4 - 1017.6 - 0.0
30/08:00pm 16.9 14.4 6.4 50 5.1 - 9 - 5 - 1017.6 1017.7 0.0
30/07:30pm 17.7 14.0 6.3 47 5.6 - 15 - 8 - 1017.4 - 0.0
30/07:00pm 18.5 14.7 6.0 44 6.2 - 15 - 8 - 1017.1 1017.2 0.0
30/06:30pm 18.8 14.3 6.0 43 6.3 - 19 - 10 - 1016.8 - 0.0
30/06:00pm 19.0 14.8 5.8 42 6.5 - 17 - 9 - 1016.3 1016.4 0.0
30/05:30pm 19.6 15.1 6.0 41 6.8 - 19 - 10 - 1015.8 - 0.0
30/05:00pm 20.2 15.4 5.8 39 7.1 - 20 - 11 - 1015.4 1015.5 0.0
30/04:30pm 20.9 16.1 5.7 37 7.6 - 20 - 11 - 1015.1 - 0.0

Other Formats:

Comma delimited format used in spreadsheet applications
http://www.bom.gov.au/fwo/IDN60801/IDN60801.94768.axf

JavaScript Object Notation format (JSON) in row-major order
http://www.bom.gov.au/fwo/IDN60801/IDN60801.94768.json